Time;durP1;ratioP1;P1;durP2;ratioP2;P2;SDS_P1;SDS_P2;PMS_P1;PMS_P2;Temp;Humidity;BMP_temperature;BMP_pressure;BME280_temperature;BME280_humidity;BME280_pressure;Samples;Min_cycle;Max_cycle;Signal;HPM_P1;HPM_P2
2022/09/26 00:00:53;;;;;;;0.30;0.30;;;;;;;13.82;72.13;100721.34;2099636;28;20048;-70
2022/09/26 00:01:55;;;;;;;0.25;0.25;;;;;;;13.80;72.07;100715.50;2102996;28;20090;-70
2022/09/26 00:02:58;;;;;;;0.30;0.30;;;;;;;13.79;72.48;100711.22;2097507;28;20057;-69
2022/09/26 00:04:02;;;;;;;0.20;0.20;;;;;;;13.79;71.98;100712.00;2097394;28;20129;-70
2022/09/26 00:05:09;;;;;;;0.20;0.20;;;;;;;13.79;72.07;100705.78;2096947;28;20146;-70
2022/09/26 00:06:11;;;;;;;0.30;0.30;;;;;;;13.77;72.51;100705.38;2097177;28;20055;-70
2022/09/26 00:07:14;;;;;;;0.30;0.30;;;;;;;13.77;72.61;100697.22;2096999;28;20053;-71
2022/09/26 00:08:16;;;;;;;0.30;0.30;;;;;;;13.78;71.89;100698.81;2102406;28;20431;-70
2022/09/26 00:09:21;;;;;;;0.30;0.30;;;;;;;13.78;72.09;100701.53;2097392;28;20106;-70
2022/09/26 00:10:22;;;;;;;0.20;0.20;;;;;;;13.78;72.20;100696.88;2096899;28;20423;-69
2022/09/26 00:11:28;;;;;;;0.30;0.30;;;;;;;13.79;72.09;100690.31;2097127;28;20053;-70
2022/09/26 00:12:30;;;;;;;0.30;0.30;;;;;;;13.75;72.60;100681.31;2097203;28;20060;-70
2022/09/26 00:13:35;;;;;;;0.30;0.30;;;;;;;13.75;72.96;100678.59;2097170;28;20074;-70
2022/09/26 00:14:37;;;;;;;0.30;0.30;;;;;;;13.74;72.39;100681.69;2097382;28;20052;-70
2022/09/26 00:15:40;;;;;;;0.30;0.30;;;;;;;13.73;72.39;100678.16;2097097;28;20052;-71
2022/09/26 00:16:43;;;;;;;0.20;0.20;;;;;;;13.70;73.06;100680.84;2079847;28;20068;-70
2022/09/26 00:17:46;;;;;;;0.30;0.30;;;;;;;13.67;72.54;100676.16;2080675;28;20636;-69
2022/09/26 00:18:49;;;;;;;0.30;0.30;;;;;;;13.67;73.08;100671.50;2098726;28;20048;-70
2022/09/26 00:19:52;;;;;;;0.20;0.20;;;;;;;13.70;73.32;100670.00;2088196;28;20045;-70
2022/09/26 00:21:02;;;;;;;0.30;0.30;;;;;;;13.67;73.19;100668.03;2088379;28;20059;-70
2022/09/26 00:22:05;;;;;;;0.30;0.30;;;;;;;13.65;72.84;100652.13;2100684;28;20052;-70
2022/09/26 00:23:06;;;;;;;0.30;0.30;;;;;;;13.65;73.01;100657.53;2103491;28;20052;-70
2022/09/26 00:24:10;;;;;;;0.30;0.30;;;;;;;13.65;73.24;100652.13;2096891;28;20048;-69
2022/09/26 00:25:12;;;;;;;0.30;0.30;;;;;;;13.63;73.42;100648.97;2102440;28;20060;-70
2022/09/26 00:26:17;;;;;;;0.30;0.30;;;;;;;13.64;73.29;100660.63;2099012;28;20063;-70
2022/09/26 00:27:19;;;;;;;0.30;0.30;;;;;;;13.61;72.72;100642.34;2099913;28;20044;-70
2022/09/26 00:28:22;;;;;;;0.30;0.30;;;;;;;13.61;73.22;100639.63;2096450;28;20048;-70
2022/09/26 00:29:25;;;;;;;0.30;0.30;;;;;;;13.60;73.20;100648.91;2097072;28;20052;-70
2022/09/26 00:30:27;;;;;;;0.20;0.20;;;;;;;13.59;72.84;100642.69;2097325;28;20508;-70
2022/09/26 00:31:33;;;;;;;0.30;0.30;;;;;;;13.59;72.94;100642.69;2097071;28;20671;-71
2022/09/26 00:32:36;;;;;;;0.25;0.25;;;;;;;13.57;73.32;100634.94;2097380;28;20607;-70
2022/09/26 00:33:39;;;;;;;0.30;0.30;;;;;;;13.54;73.97;100629.47;2102719;28;20051;-70
2022/09/26 00:34:41;;;;;;;0.20;0.20;;;;;;;13.54;73.15;100626.75;2098072;28;20063;-70
2022/09/26 00:35:49;;;;;;;0.30;0.30;;;;;;;13.54;73.87;100624.81;2105005;28;20077;-71
2022/09/26 00:36:51;;;;;;;0.30;0.30;;;;;;;13.53;73.37;100628.69;2096295;28;20041;-71
2022/09/26 00:37:54;;;;;;;0.20;0.20;;;;;;;13.54;74.07;100621.34;2096014;28;20049;-71
2022/09/26 00:38:57;;;;;;;0.28;0.28;;;;;;;13.54;73.68;100618.63;2089243;28;20060;-71
2022/09/26 00:40:00;;;;;;;0.30;0.30;;;;;;;13.53;73.46;100620.53;2087963;28;20527;-71
2022/09/26 00:41:03;;;;;;;0.20;0.20;;;;;;;13.54;73.09;100619.38;2098896;28;20052;-69
2022/09/26 00:42:06;;;;;;;0.20;0.20;;;;;;;13.56;73.25;100615.53;2098212;28;20397;-70
2022/09/26 00:43:27;;;;;;;0.30;0.30;;;;;;;13.48;73.62;100612.72;2100210;28;20052;-69
2022/09/26 00:44:42;;;;;;;0.30;0.30;;;;;;;13.47;73.68;100611.16;2100547;28;20056;-71
2022/09/26 00:45:44;;;;;;;0.30;0.30;;;;;;;13.48;73.35;100603.78;2101151;28;20060;-70
2022/09/26 00:46:48;;;;;;;0.20;0.20;;;;;;;13.51;73.15;100603.06;2096900;28;20041;-70
2022/09/26 00:47:58;;;;;;;0.30;0.30;;;;;;;13.50;73.42;100594.16;2102671;28;20108;-70
2022/09/26 00:49:14;;;;;;;0.30;0.30;;;;;;;13.44;73.94;100590.19;2089752;28;20393;-71
2022/09/26 00:50:22;;;;;;;0.30;0.30;;;;;;;13.42;73.85;100594.41;2088162;28;20498;-70
2022/09/26 00:51:25;;;;;;;0.30;0.30;;;;;;;13.42;73.50;100592.47;2091083;28;20436;-70
2022/09/26 00:52:30;;;;;;;0.30;0.30;;;;;;;13.42;74.05;100589.78;2097979;28;20485;-71
2022/09/26 00:53:36;;;;;;;0.30;0.30;;;;;;;13.43;74.36;100585.91;2096546;28;20055;-70
2022/09/26 00:54:44;;;;;;;0.32;0.32;;;;;;;13.40;74.25;100581.22;2096572;28;20044;-70
2022/09/26 00:55:53;;;;;;;0.30;0.30;;;;;;;13.44;73.72;100579.34;2099531;28;20044;-70
2022/09/26 00:56:59;;;;;;;0.30;0.30;;;;;;;13.43;74.06;100590.53;2097027;28;20079;-70
2022/09/26 00:58:06;;;;;;;0.30;0.30;;;;;;;13.41;73.88;100577.34;2096679;28;20052;-70
2022/09/26 00:59:14;;;;;;;0.20;0.20;;;;;;;13.40;73.88;100577.72;2096656;28;20048;-70
2022/09/26 01:00:17;;;;;;;0.30;0.30;;;;;;;13.38;74.13;100578.06;2089937;28;20060;-70
2022/09/26 01:01:21;;;;;;;0.30;0.30;;;;;;;13.37;73.96;100568.38;2089448;28;20500;-70
2022/09/26 01:02:25;;;;;;;0.30;0.30;;;;;;;13.39;73.79;100574.25;2096559;28;20055;-69
2022/09/26 01:03:30;;;;;;;0.30;0.30;;;;;;;13.40;74.07;100569.56;2096621;28;20056;-70
2022/09/26 01:04:37;;;;;;;0.32;0.32;;;;;;;13.38;74.19;100561.81;2098380;28;20048;-70
2022/09/26 01:05:40;;;;;;;0.30;0.30;;;;;;;13.33;74.14;100564.81;2098600;28;20185;-70
2022/09/26 01:06:44;;;;;;;0.30;0.30;;;;;;;13.34;74.13;100566.41;2096545;28;20048;-70
2022/09/26 01:07:47;;;;;;;0.30;0.30;;;;;;;13.30;74.40;100560.13;2096797;28;20056;-70
2022/09/26 01:08:54;;;;;;;0.30;0.30;;;;;;;13.29;74.26;100561.28;2099430;28;20052;-70
2022/09/26 01:09:58;;;;;;;0.30;0.30;;;;;;;13.27;74.69;100554.69;2098904;28;20124;-70
2022/09/26 01:11:01;;;;;;;0.40;0.40;;;;;;;13.26;74.30;100553.09;2096652;28;20059;-70
2022/09/26 01:12:07;;;;;;;0.30;0.30;;;;;;;13.25;74.70;100552.34;2096659;28;20048;-70
2022/09/26 01:13:09;;;;;;;0.30;0.30;;;;;;;13.25;74.40;100549.63;2097401;28;20051;-70
2022/09/26 01:14:14;;;;;;;0.30;0.30;;;;;;;13.26;74.59;100553.09;2096894;28;20063;-70
2022/09/26 01:15:16;;;;;;;0.30;0.30;;;;;;;13.26;74.05;100544.97;2096849;28;20045;-69
2022/09/26 01:16:20;;;;;;;0.30;0.30;;;;;;;13.23;74.70;100543.78;2097618;28;20098;-69
2022/09/26 01:17:23;;;;;;;0.25;0.25;;;;;;;13.28;74.08;100548.09;2100453;28;20060;-70
2022/09/26 01:18:27;;;;;;;0.20;0.20;;;;;;;13.28;75.15;100546.19;2089997;28;20064;-70
2022/09/26 01:19:49;;;;;;;0.30;0.30;;;;;;;13.27;74.55;100544.59;2079986;28;20045;-70
2022/09/26 01:20:58;;;;;;;0.30;0.30;;;;;;;13.25;74.95;100540.69;2090803;28;20445;-69
2022/09/26 01:22:18;;;;;;;0.30;0.30;;;;;;;13.20;74.33;100538.31;2096877;28;20397;-70
2022/09/26 01:23:53;;;;;;;0.30;0.30;;;;;;;13.16;75.07;100535.53;2096855;28;20044;-70
2022/09/26 01:25:11;;;;;;;0.30;0.30;;;;;;;13.14;75.14;100535.13;2090935;28;20556;-71
2022/09/26 01:26:58;;;;;;;0.22;0.22;;;;;;;13.14;74.97;100524.28;2096219;28;20449;-72
2022/09/26 01:28:22;;;;;;;0.30;0.30;;;;;;;13.14;75.26;100524.28;2055112;28;20106;-71
2022/09/26 01:31:17;;;;;;;0.30;0.30;;;;;;;13.15;75.76;100519.63;2129247;27;20659;-71
2022/09/26 01:33:58;;;;;;;0.30;0.30;;;;;;;13.13;75.68;100519.22;2112184;28;20052;-71
2022/09/26 01:35:11;;;;;;;0.30;0.30;;;;;;;13.16;75.45;100521.97;2118590;27;20103;-71
2022/09/26 01:36:32;;;;;;;0.30;0.30;;;;;;;13.15;76.06;100509.56;2122332;27;20081;-71
2022/09/26 01:37:43;;;;;;;0.28;0.28;;;;;;;13.18;75.87;100510.75;2122933;27;20124;-71
2022/09/26 01:39:02;;;;;;;0.30;0.30;;;;;;;13.16;76.14;100511.13;2119424;28;20096;-71
2022/09/26 01:40:11;;;;;;;0.20;0.20;;;;;;;13.18;76.45;100514.25;2114317;27;20858;-71
2022/09/26 01:41:31;;;;;;;0.30;0.30;;;;;;;13.12;76.49;100504.91;2126388;27;20046;-71
2022/09/26 01:42:44;;;;;;;0.20;0.20;;;;;;;13.15;76.38;100504.16;2119612;28;20039;-71
2022/09/26 01:43:55;;;;;;;0.25;0.25;;;;;;;13.13;76.65;100495.59;2118019;28;20051;-71
2022/09/26 01:45:03;;;;;;;0.30;0.30;;;;;;;13.10;77.73;100488.19;2121183;27;20108;-71
2022/09/26 01:46:19;;;;;;;0.25;0.25;;;;;;;13.11;77.37;100500.59;2123659;27;20402;-72
2022/09/26 01:47:26;;;;;;;0.20;0.20;;;;;;;13.11;77.32;100497.88;2111853;28;20051;-71
2022/09/26 01:48:35;;;;;;;0.30;0.30;;;;;;;13.08;77.40;100493.19;2114996;27;20392;-71
2022/09/26 01:49:45;;;;;;;0.38;0.38;;;;;;;13.06;77.67;100500.94;2129333;27;20122;-72
2022/09/26 01:50:50;;;;;;;;;;;;;;;12.90;79.16;100499.47;2121535;27;20047;-71
2022/09/26 01:51:58;;;;;;;0.32;0.32;;;;;;;12.96;78.00;100501.53;2123810;27;20307;-71
2022/09/26 01:53:06;;;;;;;0.30;0.30;;;;;;;12.99;78.37;100500.00;2125133;27;20051;-71
2022/09/26 01:54:16;;;;;;;0.30;0.30;;;;;;;12.99;78.55;100498.06;2112088;28;20123;-71
2022/09/26 01:55:25;;;;;;;0.30;0.30;;;;;;;12.99;79.18;100492.66;2116046;27;20055;-72
2022/09/26 01:56:32;;;;;;;0.30;0.30;;;;;;;13.02;78.74;100500.09;2111875;28;20051;-71
2022/09/26 01:57:41;;;;;;;0.20;0.20;;;;;;;13.02;79.32;100489.25;2104915;28;20055;-71
2022/09/26 01:58:50;;;;;;;0.30;0.30;;;;;;;13.02;78.85;100486.53;2108323;28;20127;-71
2022/09/26 01:59:58;;;;;;;0.30;0.30;;;;;;;13.05;78.65;100482.34;2119172;28;20498;-72
2022/09/26 02:01:07;;;;;;;0.35;0.35;;;;;;;13.04;78.98;100497.81;2119300;28;20475;-71
2022/09/26 02:02:18;;;;;;;0.40;0.40;;;;;;;13.03;79.12;100485.38;2118872;27;20051;-71
2022/09/26 02:03:26;;;;;;;0.30;0.30;;;;;;;12.98;79.57;100493.81;2128089;27;20047;-72
2022/09/26 02:04:34;;;;;;;0.30;0.30;;;;;;;12.98;79.92;100482.19;2128414;27;20059;-71
2022/09/26 02:05:46;;;;;;;0.30;0.30;;;;;;;12.98;80.00;100477.56;2120479;27;20081;-71
2022/09/26 02:06:52;;;;;;;0.30;0.30;;;;;;;12.94;79.86;100482.13;2128726;27;20119;-72
2022/09/26 02:08:00;;;;;;;0.40;0.40;;;;;;;12.96;79.94;100479.03;2121501;27;20047;-71
2022/09/26 02:09:08;;;;;;;0.40;0.40;;;;;;;12.95;79.90;100486.41;2124215;27;20051;-72
2022/09/26 02:10:17;;;;;;;0.30;0.30;;;;;;;12.93;80.29;100472.44;2109804;28;20523;-72
2022/09/26 02:11:20;;;;;;;0.30;0.30;;;;;;;12.92;80.08;100479.00;2104391;28;20052;-71
2022/09/26 02:12:27;;;;;;;0.40;0.40;;;;;;;12.91;80.80;100474.72;2119377;27;20047;-71
2022/09/26 02:13:34;;;;;;;0.30;0.30;;;;;;;12.88;80.53;100467.34;2125177;27;20506;-71
2022/09/26 02:14:40;;;;;;;0.30;0.30;;;;;;;12.86;80.56;100469.63;2128198;27;20051;-71
2022/09/26 02:15:46;;;;;;;0.40;0.40;;;;;;;12.86;80.58;100463.44;2115665;28;20620;-72
2022/09/26 02:16:52;;;;;;;0.30;0.30;;;;;;;12.83;80.72;100467.63;2111944;28;20522;-68
2022/09/26 02:18:04;;;;;;;0.30;0.30;;;;;;;12.79;81.63;100447.84;2119530;27;20055;-67
2022/09/26 02:19:15;;;;;;;0.40;0.40;;;;;;;12.82;81.53;100454.47;2121604;27;20047;-68
2022/09/26 02:20:23;;;;;;;0.30;0.30;;;;;;;12.80;81.05;100443.97;2128160;27;20047;-68
2022/09/26 02:21:26;;;;;;;0.30;0.30;;;;;;;12.77;81.30;100444.72;2120659;28;20118;-68
2022/09/26 02:22:32;;;;;;;0.30;0.30;;;;;;;12.77;80.82;100438.50;2124801;27;20049;-67
2022/09/26 02:23:35;;;;;;;0.40;0.40;;;;;;;12.75;80.83;100441.59;2122801;27;20085;-68
2022/09/26 02:24:37;;;;;;;0.30;0.30;;;;;;;12.72;81.43;100434.19;2115779;28;20134;-67
2022/09/26 02:25:40;;;;;;;0.40;0.40;;;;;;;12.74;82.02;100434.63;2106613;28;20075;-67
2022/09/26 02:26:42;;;;;;;0.30;0.30;;;;;;;12.75;81.22;100432.69;2105656;28;20056;-67
2022/09/26 02:27:45;;;;;;;0.40;0.40;;;;;;;12.75;81.47;100427.28;2111843;28;20055;-67
2022/09/26 02:28:47;;;;;;;0.40;0.40;;;;;;;12.73;81.37;100430.31;2124785;27;20053;-68
2022/09/26 02:29:52;;;;;;;0.40;0.40;;;;;;;12.74;81.35;100418.34;2119125;28;20814;-68
2022/09/26 02:30:57;;;;;;;0.30;0.30;;;;;;;12.72;81.08;100426.06;2109099;28;20432;-68
2022/09/26 02:32:04;;;;;;;0.40;0.40;;;;;;;12.71;81.31;100416.38;2115443;27;20059;-68
2022/09/26 02:33:08;;;;;;;0.40;0.40;;;;;;;12.68;81.57;100411.69;2121227;27;20418;-67
2022/09/26 02:34:11;;;;;;;0.30;0.30;;;;;;;12.69;81.62;100415.97;2117467;28;20140;-67
2022/09/26 02:36:35;;;;;;;0.40;0.40;;;;;;;12.62;81.58;100409.66;2110625;28;20044;-67
2022/09/26 02:37:38;;;;;;;0.38;0.38;;;;;;;12.60;81.65;100399.19;2110006;28;20059;-67
2022/09/26 02:38:41;;;;;;;0.40;0.40;;;;;;;12.58;81.93;100393.34;2112025;27;20048;-68
2022/09/26 02:40:07;;;;;;;0.50;0.50;;;;;;;12.53;81.75;100390.94;2114331;28;20126;-67
2022/09/26 02:41:18;;;;;;;0.30;0.30;;;;;;;12.52;81.71;100386.69;2111494;28;20577;-67
2022/09/26 02:42:32;;;;;;;0.40;0.40;;;;;;;12.48;81.56;100382.38;2100351;28;20048;-67
2022/09/26 02:43:58;;;;;;;0.40;0.40;;;;;;;12.39;81.98;100385.31;2105246;28;20176;-70
2022/09/26 02:45:14;;;;;;;0.40;0.40;;;;;;;12.36;82.11;100369.00;2113882;28;20047;-71
2022/09/26 02:46:42;;;;;;;0.30;0.30;;;;;;;12.31;82.38;100367.41;2113284;28;20138;-72
2022/09/26 02:48:08;;;;;;;0.30;0.30;;;;;;;12.28;82.17;100370.03;2106338;28;20127;-70
2022/09/26 02:49:33;;;;;;;0.30;0.30;;;;;;;12.27;82.51;100374.69;2109766;28;20068;-71
2022/09/26 02:50:49;;;;;;;0.40;0.40;;;;;;;12.28;82.53;100367.34;2095670;28;20057;-71
2022/09/26 02:52:13;;;;;;;0.40;0.40;;;;;;;12.25;82.34;100362.66;2101283;28;20091;-71
2022/09/26 02:53:32;;;;;;;0.40;0.40;;;;;;;12.28;81.99;100367.34;2114676;28;20434;-71
2022/09/26 02:54:46;;;;;;;0.40;0.40;;;;;;;12.27;82.56;100361.16;2106682;28;20056;-71
2022/09/26 02:56:02;;;;;;;0.30;0.30;;;;;;;12.27;82.65;100354.97;2107431;28;20499;-70
2022/09/26 02:57:15;;;;;;;0.30;0.30;;;;;;;12.28;82.50;100361.94;2111128;28;20814;-71
2022/09/26 02:58:27;;;;;;;0.30;0.30;;;;;;;12.28;82.27;100351.88;2096611;28;20057;-71
2022/09/26 02:59:37;;;;;;;0.30;0.30;;;;;;;12.28;82.58;100367.34;2106740;28;20063;-71
2022/09/26 03:00:52;;;;;;;0.32;0.32;;;;;;;12.26;82.75;100359.59;2107066;28;20048;-70
2022/09/26 03:02:02;;;;;;;0.30;0.30;;;;;;;12.26;83.04;100348.75;2107820;28;20172;-71
2022/09/26 03:03:11;;;;;;;0.40;0.40;;;;;;;12.25;82.91;100352.63;2110432;28;20047;-71
2022/09/26 03:04:22;;;;;;;0.40;0.40;;;;;;;12.25;83.22;100358.03;2114182;27;20043;-71
2022/09/26 03:05:28;;;;;;;0.30;0.30;;;;;;;12.24;83.36;100345.63;2120053;27;20810;-71
2022/09/26 03:06:37;;;;;;;0.40;0.40;;;;;;;12.26;83.30;100337.94;2120951;27;20062;-70
2022/09/26 03:07:44;;;;;;;0.40;0.40;;;;;;;12.26;83.69;100346.06;2104647;28;20089;-70
2022/09/26 03:08:49;;;;;;;0.47;0.47;;;;;;;12.27;82.88;100336.81;2097250;28;20059;-71
2022/09/26 03:09:54;;;;;;;0.38;0.38;;;;;;;12.26;83.06;100343.34;2106157;28;20418;-69
2022/09/26 03:11:03;;;;;;;0.40;0.40;;;;;;;12.27;83.05;100334.09;2109166;28;20047;-71
2022/09/26 03:12:08;;;;;;;0.43;0.43;;;;;;;12.25;83.38;100330.97;2110703;28;20502;-70
2022/09/26 03:13:14;;;;;;;0.40;0.40;;;;;;;12.27;83.45;100333.31;2109065;27;20043;-70
2022/09/26 03:14:18;;;;;;;0.40;0.40;;;;;;;12.27;83.35;100328.69;2113465;28;20051;-69
2022/09/26 03:15:23;;;;;;;0.40;0.40;;;;;;;12.26;83.80;100327.09;2113285;28;20502;-70
2022/09/26 03:16:36;;;;;;;0.40;0.40;;;;;;;12.22;83.19;100323.56;2105225;28;20048;-70
2022/09/26 03:17:43;;;;;;;0.40;0.40;;;;;;;12.24;83.64;100317.78;2097032;28;20044;-70
2022/09/26 03:18:52;;;;;;;0.40;0.40;;;;;;;12.22;84.05;100320.88;2096925;28;20076;-71
2022/09/26 03:20:01;;;;;;;0.40;0.40;;;;;;;12.23;83.67;100308.88;2107537;28;20091;-71
2022/09/26 03:21:04;;;;;;;;;;;;;;;12.09;84.48;100314.09;2106864;28;20450;-70
2022/09/26 03:22:08;;;;;;;0.38;0.38;;;;;;;12.15;84.01;100307.22;2101929;28;20043;-70
2022/09/26 03:23:11;;;;;;;0.30;0.30;;;;;;;12.19;83.74;100309.97;2113288;28;20126;-72
2022/09/26 03:24:16;;;;;;;0.40;0.40;;;;;;;12.21;83.64;100308.47;2098931;28;20067;-71
2022/09/26 03:25:23;;;;;;;0.40;0.40;;;;;;;12.21;83.77;100303.06;2099846;28;20056;-72
2022/09/26 03:26:34;;;;;;;0.40;0.40;;;;;;;12.21;83.63;100299.59;2109906;27;20076;-71
2022/09/26 03:27:40;;;;;;;0.30;0.30;;;;;;;12.21;83.67;100297.63;2112066;28;20050;-71
2022/09/26 03:28:43;;;;;;;0.40;0.40;;;;;;;12.20;83.78;100295.28;2114262;27;20419;-71
2022/09/26 03:29:45;;;;;;;0.30;0.30;;;;;;;12.19;83.74;100288.34;2112986;28;20055;-71
2022/09/26 03:30:54;;;;;;;0.30;0.30;;;;;;;12.18;84.28;100292.97;2103019;28;20044;-71
2022/09/26 03:32:05;;;;;;;0.40;0.40;;;;;;;12.18;84.01;100286.78;2103100;28;20123;-71
2022/09/26 03:33:08;;;;;;;0.30;0.30;;;;;;;12.17;83.76;100285.19;2096308;28;20503;-70
2022/09/26 03:34:11;;;;;;;0.50;0.50;;;;;;;12.17;84.00;100280.59;2096271;28;20063;-71
2022/09/26 03:35:16;;;;;;;0.40;0.40;;;;;;;12.16;84.42;100279.03;2103868;28;20055;-71
2022/09/26 03:36:21;;;;;;;0.30;0.30;;;;;;;12.17;84.10;100269.75;2105739;28;20055;-71
2022/09/26 03:37:23;;;;;;;0.30;0.30;;;;;;;12.18;83.87;100276.72;2113519;27;20048;-72
2022/09/26 03:38:26;;;;;;;0.35;0.35;;;;;;;12.18;84.29;100276.72;2111912;28;20062;-71
2022/09/26 03:39:38;;;;;;;0.47;0.47;;;;;;;12.19;83.86;100277.50;2111131;28;20078;-71
2022/09/26 03:40:53;;;;;;;0.35;0.35;;;;;;;12.17;83.92;100274.38;2108203;27;20060;-70
2022/09/26 03:42:15;;;;;;;0.40;0.40;;;;;;;12.14;84.53;100265.06;2114226;27;20414;-70
2022/09/26 03:43:23;;;;;;;0.40;0.40;;;;;;;12.18;83.87;100274.00;2110470;28;20050;-70
2022/09/26 03:44:27;;;;;;;0.40;0.40;;;;;;;12.19;83.97;100262.06;2099022;28;20048;-71
2022/09/26 03:45:49;;;;;;;0.40;0.40;;;;;;;12.17;83.95;100260.84;2078612;28;20159;-70
2022/09/26 03:46:56;;;;;;;0.40;0.40;;;;;;;12.18;84.11;100260.47;2108487;28;20051;-71
2022/09/26 03:47:58;;;;;;;0.40;0.40;;;;;;;12.17;84.25;100258.94;2111633;27;20063;-71
2022/09/26 03:49:01;;;;;;;0.40;0.40;;;;;;;12.18;84.13;100255.06;2119049;27;20378;-71
2022/09/26 03:50:04;;;;;;;0.40;0.40;;;;;;;12.19;84.07;100248.53;2104973;28;20156;-70
2022/09/26 03:51:11;;;;;;;0.40;0.40;;;;;;;12.21;84.35;100251.63;2096991;28;20056;-70
2022/09/26 03:52:13;;;;;;;0.40;0.40;;;;;;;12.21;84.28;100254.34;2113002;27;20110;-71
2022/09/26 03:53:18;;;;;;;0.40;0.40;;;;;;;12.20;84.19;100241.16;2112546;28;20160;-71
2022/09/26 03:54:20;;;;;;;0.40;0.40;;;;;;;12.22;84.23;100244.31;2104300;28;20798;-71
2022/09/26 03:55:25;;;;;;;0.50;0.50;;;;;;;12.19;84.27;100234.22;2103880;28;20067;-71
2022/09/26 03:56:27;;;;;;;0.50;0.50;;;;;;;12.22;84.25;100234.25;2108089;28;20083;-71
2022/09/26 03:57:30;;;;;;;0.40;0.40;;;;;;;12.22;84.14;100233.47;2113035;28;20051;-71
2022/09/26 03:58:42;;;;;;;0.40;0.40;;;;;;;12.19;84.08;100223.38;2105901;28;20044;-71
2022/09/26 03:59:45;;;;;;;0.40;0.40;;;;;;;12.19;84.19;100224.19;2112745;28;20055;-71
2022/09/26 04:00:47;;;;;;;0.40;0.40;;;;;;;12.17;84.39;100221.03;2111344;28;20617;-71
2022/09/26 04:01:50;;;;;;;0.45;0.45;;;;;;;12.21;84.30;100227.28;2112589;28;20511;-71
2022/09/26 04:02:52;;;;;;;0.40;0.40;;;;;;;12.19;84.19;100224.19;2116512;27;20166;-71
2022/09/26 04:04:08;;;;;;;0.40;0.40;;;;;;;12.15;84.09;100217.91;2112759;28;20047;-71
2022/09/26 04:05:10;;;;;;;0.40;0.40;;;;;;;12.17;84.14;100214.84;2104111;28;20538;-71
2022/09/26 04:06:18;;;;;;;0.40;0.40;;;;;;;12.18;83.93;100214.47;2105712;28;20052;-71
2022/09/26 04:07:22;;;;;;;0.40;0.40;;;;;;;12.15;83.72;100209.00;2114252;28;20051;-71
2022/09/26 04:08:24;;;;;;;0.40;0.40;;;;;;;12.16;84.05;100214.09;2112393;28;20048;-71
2022/09/26 04:09:27;;;;;;;0.40;0.40;;;;;;;12.15;83.93;100204.38;2104290;28;20085;-71
2022/09/26 04:10:29;;;;;;;0.30;0.30;;;;;;;12.14;83.84;100196.63;2113010;27;20048;-71
2022/09/26 04:11:33;;;;;;;0.30;0.30;;;;;;;12.14;84.04;100205.53;2109356;28;20054;-71
2022/09/26 04:12:34;;;;;;;0.40;0.40;;;;;;;12.13;84.22;100201.25;2103163;28;20515;-71
2022/09/26 04:13:38;;;;;;;0.30;0.30;;;;;;;12.15;84.09;100192.78;2110403;28;20056;-71
2022/09/26 04:14:54;;;;;;;0.40;0.40;;;;;;;12.12;83.90;100186.19;2112668;28;20079;-71
2022/09/26 04:15:57;;;;;;;0.40;0.40;;;;;;;12.12;83.86;100191.59;2104522;28;20389;-71
2022/09/26 04:17:00;;;;;;;0.30;0.30;;;;;;;12.12;83.94;100190.81;2104407;28;20579;-72
2022/09/26 04:18:10;;;;;;;0.40;0.40;;;;;;;12.13;83.88;100187.72;2105129;28;20082;-71
2022/09/26 04:19:13;;;;;;;0.40;0.40;;;;;;;12.14;83.98;100189.31;2111842;27;20179;-71
2022/09/26 04:20:15;;;;;;;0.40;0.40;;;;;;;12.14;83.71;100183.91;2112937;28;20407;-71
2022/09/26 04:21:20;;;;;;;0.40;0.40;;;;;;;12.15;83.73;100190.84;2103943;28;20048;-71
2022/09/26 04:22:24;;;;;;;0.40;0.40;;;;;;;12.13;83.67;100186.97;2102740;28;20047;-71
2022/09/26 04:23:27;;;;;;;0.40;0.40;;;;;;;12.13;83.65;100181.56;2100669;28;20047;-71
2022/09/26 04:24:31;;;;;;;0.50;0.50;;;;;;;12.11;83.31;100173.81;2101815;28;20051;-71
2022/09/26 04:25:36;;;;;;;0.40;0.40;;;;;;;12.12;83.40;100177.28;2107788;28;20146;-71
2022/09/26 04:26:41;;;;;;;0.50;0.50;;;;;;;12.11;83.54;100163.00;2104912;28;20077;-71
2022/09/26 04:27:43;;;;;;;0.50;0.50;;;;;;;12.10;83.88;100174.19;2109092;27;20048;-71
2022/09/26 04:28:47;;;;;;;0.50;0.50;;;;;;;12.11;83.33;100171.09;2113944;27;20137;-71
2022/09/26 04:29:49;;;;;;;0.40;0.40;;;;;;;12.10;83.59;100166.81;2108606;28;20083;-71
2022/09/26 04:30:59;;;;;;;0.40;0.40;;;;;;;12.08;83.64;100164.47;2104273;28;20542;-71
2022/09/26 04:32:01;;;;;;;0.50;0.50;;;;;;;12.09;83.58;100154.44;2113427;27;20108;-71
2022/09/26 04:33:13;;;;;;;0.50;0.50;;;;;;;12.07;83.74;100154.03;2111398;28;20077;-72
2022/09/26 04:34:38;;;;;;;0.40;0.40;;;;;;;12.00;84.44;100151.25;2099396;28;20047;-70
2022/09/26 04:35:42;;;;;;;0.40;0.40;;;;;;;12.01;83.76;100155.50;2104214;28;20615;-70
2022/09/26 04:36:47;;;;;;;0.40;0.40;;;;;;;12.02;83.80;100143.53;2104457;28;20131;-70
2022/09/26 04:37:49;;;;;;;0.40;0.40;;;;;;;12.01;83.73;100147.38;2100946;28;20068;-71
2022/09/26 04:38:52;;;;;;;0.40;0.40;;;;;;;11.98;84.05;100143.50;2106997;28;20039;-71
2022/09/26 04:39:55;;;;;;;0.43;0.43;;;;;;;11.98;84.13;100138.09;2104955;28;20044;-71
2022/09/26 04:41:02;;;;;;;0.47;0.47;;;;;;;11.97;84.15;100133.78;2112544;27;20082;-70
2022/09/26 04:42:05;;;;;;;0.40;0.40;;;;;;;11.96;84.40;100128.75;2119215;27;20043;-70
2022/09/26 04:43:07;;;;;;;0.50;0.50;;;;;;;11.94;84.33;100145.34;2096665;28;20533;-70
2022/09/26 04:44:11;;;;;;;0.40;0.40;;;;;;;11.91;84.92;100132.56;2102459;28;20059;-70
2022/09/26 04:45:13;;;;;;;0.40;0.40;;;;;;;11.93;84.28;100134.91;2107048;28;20159;-70
2022/09/26 04:46:19;;;;;;;0.40;0.40;;;;;;;11.92;84.56;100125.25;2105283;28;20096;-70
2022/09/26 04:47:27;;;;;;;0.40;0.40;;;;;;;11.87;84.86;100123.63;2105224;28;20518;-70
2022/09/26 04:48:49;;;;;;;0.40;0.40;;;;;;;11.83;84.94;100120.09;2114217;27;20047;-69
2022/09/26 04:49:54;;;;;;;0.40;0.40;;;;;;;11.85;85.32;100119.72;2111912;28;20434;-70
2022/09/26 04:50:57;;;;;;;0.50;0.50;;;;;;;11.85;84.85;100125.13;2104254;28;20044;-70
2022/09/26 04:52:01;;;;;;;0.40;0.40;;;;;;;11.81;85.12;100119.66;2102415;28;20055;-69
2022/09/26 04:53:05;;;;;;;0.40;0.40;;;;;;;11.82;84.78;100107.72;2112333;27;20126;-70
2022/09/26 04:54:10;;;;;;;0.50;0.50;;;;;;;11.81;85.29;100105.38;2112555;28;20071;-70
2022/09/26 04:55:17;;;;;;;0.40;0.40;;;;;;;11.81;85.21;100111.56;2105075;28;20100;-70
2022/09/26 04:56:20;;;;;;;0.50;0.50;;;;;;;11.81;85.93;100116.19;2110633;28;20541;-70
2022/09/26 04:57:23;;;;;;;0.50;0.50;;;;;;;11.80;85.29;100099.19;2112460;28;20127;-70
2022/09/26 04:58:25;;;;;;;0.50;0.50;;;;;;;11.77;85.29;100099.13;2112906;28;20060;-70
2022/09/26 04:59:28;;;;;;;0.52;0.52;;;;;;;11.76;85.64;100092.97;2111849;28;20067;-69
2022/09/26 05:00:36;;;;;;;0.40;0.40;;;;;;;11.76;86.18;100097.59;2104771;28;20040;-70
2022/09/26 05:01:40;;;;;;;0.40;0.40;;;;;;;11.76;85.99;100103.78;2103927;28;20103;-70
2022/09/26 05:02:50;;;;;;;0.50;0.50;;;;;;;11.75;85.76;100091.38;2105348;28;20127;-70
2022/09/26 05:03:54;;;;;;;0.50;0.50;;;;;;;11.76;85.82;100103.00;2112541;28;20047;-70
2022/09/26 05:04:58;;;;;;;0.50;0.50;;;;;;;11.78;85.63;100081.78;2110308;28;20062;-70
2022/09/26 05:06:01;;;;;;;0.40;0.40;;;;;;;11.76;85.93;100086.75;2106746;28;20495;-70
2022/09/26 05:07:09;;;;;;;0.50;0.50;;;;;;;11.79;85.67;100086.03;2112476;28;20055;-71
2022/09/26 05:08:12;;;;;;;0.50;0.50;;;;;;;11.75;85.66;100085.97;2099587;28;20788;-71
2022/09/26 05:09:16;;;;;;;0.50;0.50;;;;;;;11.76;86.07;100089.47;2099840;28;20045;-69
2022/09/26 05:10:32;;;;;;;0.50;0.50;;;;;;;11.74;85.85;100078.22;2105460;28;20085;-70
2022/09/26 05:11:37;;;;;;;0.60;0.60;;;;;;;11.73;85.76;100077.44;2104881;28;20055;-69
2022/09/26 05:12:41;;;;;;;0.60;0.60;;;;;;;11.73;85.54;100082.09;2100233;28;20056;-70
2022/09/26 05:13:45;;;;;;;0.50;0.50;;;;;;;11.73;85.75;100074.75;2103629;28;20040;-70
2022/09/26 05:14:55;;;;;;;0.50;0.50;;;;;;;11.71;85.82;100078.97;2103982;28;20188;-70
2022/09/26 05:16:00;;;;;;;0.52;0.52;;;;;;;11.72;85.97;100075.09;2101251;28;20148;-70
2022/09/26 05:17:03;;;;;;;0.50;0.50;;;;;;;11.71;85.96;100079.75;2098874;28;20527;-70
2022/09/26 05:18:07;;;;;;;0.57;0.57;;;;;;;11.75;85.75;100066.25;2096608;28;20078;-70